Time;durP1;ratioP1;P1;durP2;ratioP2;P2;SDS_P1;SDS_P2;PMS_P1;PMS_P2;Temp;Humidity;BMP_temperature;BMP_pressure;BME280_temperature;BME280_humidity;BME280_pressure;Samples;Min_cycle;Max_cycle;Signal;HPM_P1;HPM_P2
2022/12/12 15:35:23;;;;;;;36.10;15.80;;;-2.40;99.90;;;;;;5087797;27;20469;-65
2022/12/12 15:38:00;;;;;;;29.38;15.20;;;-2.50;99.90;;;;;;5087499;28;20041;-64
2022/12/12 15:40:30;;;;;;;30.90;16.08;;;-2.40;99.90;;;;;;5081666;28;20036;-66
2022/12/12 15:42:59;;;;;;;30.05;14.32;;;-2.30;99.90;;;;;;5071949;28;20544;-66
2022/12/12 15:45:30;;;;;;;27.77;14.75;;;-2.30;99.90;;;;;;5088135;28;20150;-67
2022/12/12 15:47:56;;;;;;;22.60;12.18;;;-2.20;99.90;;;;;;5086476;28;20494;-66
2022/12/12 15:50:23;;;;;;;28.73;13.90;;;-2.10;99.90;;;;;;5086176;28;20024;-66
2022/12/12 15:53:24;;;;;;;30.02;12.93;;;-2.10;99.90;;;;;;5083729;28;20377;-66
2022/12/12 15:55:53;;;;;;;26.02;12.15;;;-2.10;99.90;;;;;;5066607;28;20128;-67
2022/12/12 15:58:27;;;;;;;23.42;11.88;;;-2.10;99.90;;;;;;5066943;28;20020;-66
2022/12/12 16:01:20;;;;;;;25.10;10.73;;;-2.00;99.90;;;;;;5068203;28;20507;-66
2022/12/12 16:04:25;;;;;;;25.85;12.07;;;-2.00;99.90;;;;;;5069204;28;20040;-66
2022/12/12 16:06:51;;;;;;;20.33;10.75;;;-2.00;99.90;;;;;;5068820;28;20056;-66
2022/12/12 16:09:21;;;;;;;21.50;11.05;;;-2.00;99.90;;;;;;5099767;28;20021;-65
2022/12/12 16:11:57;;;;;;;21.55;10.63;;;-2.10;99.90;;;;;;5067898;28;20039;-67
2022/12/12 16:14:40;;;;;;;25.42;10.57;;;-2.10;99.90;;;;;;5072387;28;20437;-70
2022/12/12 16:17:20;;;;;;;22.20;10.70;;;-2.00;99.90;;;;;;5085737;28;20477;-66
2022/12/12 16:20:01;;;;;;;26.33;11.68;;;-2.00;99.90;;;;;;5088073;28;20017;-65
2022/12/12 16:22:34;;;;;;;23.60;11.63;;;-2.00;99.90;;;;;;5087375;28;20028;-66
2022/12/12 16:25:10;;;;;;;26.67;13.10;;;-2.00;99.90;;;;;;5084350;28;20012;-67
2022/12/12 16:27:35;;;;;;;30.10;12.25;;;-2.00;99.90;;;;;;5065269;28;20166;-67
2022/12/12 16:30:01;;;;;;;22.67;11.23;;;-2.10;99.90;;;;;;5069579;28;20068;-66
2022/12/12 16:32:27;;;;;;;20.80;10.70;;;-2.10;99.90;;;;;;5084787;28;20462;-65
2022/12/12 16:34:53;;;;;;;22.55;11.35;;;-2.10;99.90;;;;;;5087237;28;20102;-66
2022/12/12 16:37:18;;;;;;;18.83;10.27;;;-2.10;99.90;;;;;;5085127;28;20025;-65
2022/12/12 16:39:44;;;;;;;22.27;11.65;;;-2.20;99.90;;;;;;5077288;28;20472;-67
2022/12/12 16:42:18;;;;;;;23.25;11.77;;;-2.20;99.90;;;;;;5086248;28;20466;-65
2022/12/12 16:44:45;;;;;;;22.13;11.32;;;-2.20;99.90;;;;;;5084354;28;20990;-65
2022/12/12 16:47:16;;;;;;;24.38;13.57;;;-2.20;99.90;;;;;;5069972;28;20070;-64
2022/12/12 16:49:41;;;;;;;27.33;11.80;;;-2.20;99.90;;;;;;5072530;28;20028;-66
2022/12/12 16:52:12;;;;;;;21.70;12.50;;;-2.10;99.90;;;;;;5073334;28;20449;-67
2022/12/12 16:54:38;;;;;;;27.75;14.02;;;-2.20;99.90;;;;;;5071942;28;20078;-65
2022/12/12 16:57:03;;;;;;;29.02;14.82;;;-2.20;99.90;;;;;;5073774;28;20012;-67
2022/12/12 16:59:29;;;;;;;30.27;16.98;;;-2.20;99.90;;;;;;5073046;28;20032;-68
2022/12/12 17:01:56;;;;;;;31.15;15.45;;;-2.30;99.90;;;;;;5073865;28;20043;-63
2022/12/12 17:04:23;;;;;;;34.92;15.68;;;-2.30;99.90;;;;;;5061954;28;20033;-65
2022/12/12 17:06:49;;;;;;;33.50;16.65;;;-2.30;99.90;;;;;;5059520;28;20020;-63
2022/12/12 17:09:16;;;;;;;29.45;16.13;;;-2.30;99.90;;;;;;5073645;28;20033;-64
2022/12/12 17:11:41;;;;;;;32.53;17.70;;;-2.30;99.90;;;;;;5073430;28;20025;-63
2022/12/12 17:14:22;;;;;;;32.33;15.82;;;-2.30;99.90;;;;;;5072791;28;20059;-64
2022/12/12 17:16:52;;;;;;;35.88;17.38;;;-2.40;99.90;;;;;;5070989;28;20020;-65
2022/12/12 17:19:18;;;;;;;47.28;21.02;;;-2.40;99.90;;;;;;5062422;28;20032;-65
2022/12/12 17:21:43;;;;;;;40.47;18.52;;;-2.40;99.90;;;;;;5059117;28;20016;-65
2022/12/12 17:24:09;;;;;;;37.00;20.05;;;-2.40;99.90;;;;;;5072798;28;20119;-65
2022/12/12 17:26:37;;;;;;;38.78;19.50;;;-2.50;99.90;;;;;;5071359;28;20149;-64
2022/12/12 17:29:04;;;;;;;36.75;18.75;;;-2.50;99.90;;;;;;5069514;28;20532;-65
2022/12/12 17:31:29;;;;;;;34.22;17.65;;;-2.50;99.90;;;;;;5071186;28;20043;-64
2022/12/12 17:33:55;;;;;;;39.67;19.42;;;-2.50;99.90;;;;;;5072251;28;20493;-65
2022/12/12 17:36:21;;;;;;;39.70;17.85;;;-2.50;99.90;;;;;;5072125;28;20025;-65
2022/12/12 17:38:47;;;;;;;37.88;17.75;;;-2.50;99.90;;;;;;5073341;28;20016;-65
2022/12/12 17:41:12;;;;;;;39.70;19.88;;;-2.60;99.90;;;;;;5060176;28;20435;-67
2022/12/12 17:43:39;;;;;;;36.47;17.65;;;-2.60;99.90;;;;;;5050440;28;20047;-67
2022/12/12 17:46:12;;;;;;;41.00;19.50;;;-2.60;99.90;;;;;;5051188;28;20021;-68
2022/12/12 17:48:42;;;;;;;40.00;18.75;;;-2.60;99.90;;;;;;5052384;28;20151;-68
2022/12/12 17:51:10;;;;;;;33.65;17.50;;;-2.60;99.90;;;;;;5062643;28;20645;-67
2022/12/12 17:53:39;;;;;;;36.53;18.75;;;-2.60;99.90;;;;;;5071925;28;20036;-67
2022/12/12 17:56:06;;;;;;;41.90;20.60;;;-2.60;99.90;;;;;;5069377;28;20048;-68
2022/12/12 17:58:36;;;;;;;45.67;19.02;;;-2.70;99.90;;;;;;5071490;28;20078;-68
2022/12/12 18:01:16;;;;;;;39.50;19.42;;;-2.70;99.90;;;;;;5070921;28;20013;-68
2022/12/12 18:03:42;;;;;;;41.70;18.52;;;-2.70;99.90;;;;;;5071436;28;20056;-67
2022/12/12 18:06:09;;;;;;;48.95;20.42;;;-2.80;99.90;;;;;;5072422;28;20048;-68
2022/12/12 18:08:35;;;;;;;44.30;18.98;;;-2.80;99.90;;;;;;5072412;28;20498;-67
2022/12/12 18:11:04;;;;;;;46.70;19.75;;;-2.80;99.90;;;;;;5068582;28;20110;-68
2022/12/12 18:13:29;;;;;;;47.97;21.75;;;-2.80;99.90;;;;;;5067018;28;20437;-67
2022/12/12 18:15:57;;;;;;;50.63;23.63;;;-2.80;99.90;;;;;;5071772;28;20052;-66
2022/12/12 18:18:24;;;;;;;53.78;24.92;;;-2.80;99.90;;;;;;5069237;28;20104;-67
2022/12/12 18:20:51;;;;;;;53.97;24.92;;;-2.90;99.90;;;;;;5061271;28;20028;-65
2022/12/12 18:23:17;;;;;;;44.95;23.17;;;-2.90;99.90;;;;;;5071139;28;20047;-68
2022/12/12 18:25:42;;;;;;;49.72;23.65;;;-2.90;99.90;;;;;;5071072;28;20481;-67
2022/12/12 18:28:11;;;;;;;48.15;20.90;;;-2.90;99.90;;;;;;5071246;28;20021;-66
2022/12/12 18:30:39;;;;;;;43.97;21.27;;;-3.00;99.90;;;;;;5071391;28;20465;-67
2022/12/12 18:33:09;;;;;;;37.67;17.88;;;-3.00;99.90;;;;;;5059269;28;20534;-68
2022/12/12 18:35:35;;;;;;;43.17;20.75;;;-3.00;99.90;;;;;;5051206;28;20151;-66
2022/12/12 18:38:01;;;;;;;42.95;21.42;;;-3.00;99.90;;;;;;5058401;28;20046;-65
2022/12/12 18:40:28;;;;;;;37.75;19.30;;;-3.00;99.90;;;;;;5071065;28;20027;-67
2022/12/12 18:42:53;;;;;;;44.80;21.05;;;-3.00;99.90;;;;;;5069670;28;20097;-66
2022/12/12 18:45:19;;;;;;;44.08;20.50;;;-3.00;99.90;;;;;;5068508;28;20763;-65
2022/12/12 18:47:46;;;;;;;40.78;19.13;;;-3.10;99.90;;;;;;5071412;28;20032;-65
2022/12/12 18:50:11;;;;;;;37.65;19.20;;;-3.00;99.90;;;;;;5067737;28;20016;-66
2022/12/12 18:52:37;;;;;;;33.80;18.80;;;-3.10;99.90;;;;;;5054235;28;20389;-66
2022/12/12 18:55:03;;;;;;;32.38;17.63;;;-3.10;99.90;;;;;;5070932;28;20122;-67
2022/12/12 18:57:28;;;;;;;37.95;18.10;;;-3.10;99.90;;;;;;5070950;28;20020;-67
2022/12/12 18:59:54;;;;;;;42.38;19.23;;;-3.20;99.90;;;;;;5070295;28;20032;-67
2022/12/12 19:02:20;;;;;;;39.95;17.77;;;-3.20;99.90;;;;;;5067508;28;20124;-66
2022/12/12 19:04:47;;;;;;;37.85;17.17;;;-3.20;99.90;;;;;;5071311;28;20048;-68
2022/12/12 19:07:13;;;;;;;36.78;16.85;;;-3.20;99.90;;;;;;5070036;28;20028;-65
2022/12/12 19:09:39;;;;;;;34.38;16.38;;;-3.20;99.90;;;;;;5070892;28;20020;-67
2022/12/12 19:12:06;;;;;;;32.17;15.80;;;-3.20;99.90;;;;;;5070858;28;20558;-66
2022/12/12 19:14:32;;;;;;;36.88;17.35;;;-3.20;99.90;;;;;;5055441;28;20140;-67
2022/12/12 19:16:58;;;;;;;40.03;17.02;;;-3.30;99.90;;;;;;5052848;28;20025;-67
2022/12/12 19:19:23;;;;;;;36.63;17.75;;;-3.30;99.90;;;;;;5070766;28;20036;-69
2022/12/12 19:21:51;;;;;;;33.50;18.88;;;-3.30;99.90;;;;;;5069920;28;20024;-72
2022/12/12 19:24:16;;;;;;;36.65;18.38;;;-3.30;99.90;;;;;;5070470;28;20028;-71
2022/12/12 19:26:43;;;;;;;33.75;17.40;;;-3.30;99.90;;;;;;5070033;28;20025;-70
2022/12/12 19:29:12;;;;;;;38.33;19.25;;;-3.30;99.90;;;;;;5070433;28;20029;-71
2022/12/12 19:31:39;;;;;;;34.70;17.40;;;-3.40;99.90;;;;;;5070984;28;20497;-69
2022/12/12 19:34:06;;;;;;;31.25;15.55;;;-3.40;99.90;;;;;;5070067;28;20043;-70
2022/12/12 19:36:32;;;;;;;39.00;18.13;;;-3.40;99.90;;;;;;5055174;28;20033;-71
2022/12/12 19:38:58;;;;;;;41.33;18.67;;;-3.40;99.90;;;;;;5054430;28;20020;-69
2022/12/12 19:41:25;;;;;;;40.38;18.27;;;-3.50;99.90;;;;;;5069291;28;20020;-68
2022/12/12 19:43:52;;;;;;;36.50;16.58;;;-3.50;99.90;;;;;;5068824;28;20388;-66
2022/12/12 19:46:25;;;;;;;36.53;18.30;;;-3.50;99.90;;;;;;5069546;28;20032;-67
2022/12/12 19:49:02;;;;;;;37.10;16.45;;;-3.50;99.90;;;;;;5065801;28;20378;-69
2022/12/12 19:51:31;;;;;;;30.45;16.05;;;-3.50;99.90;;;;;;5053040;28;20370;-68
2022/12/12 19:53:58;;;;;;;29.98;16.65;;;-3.50;99.90;;;;;;5048967;28;20458;-68
2022/12/12 19:56:27;;;;;;;27.00;15.38;;;-3.60;99.90;;;;;;5048040;28;20027;-67
2022/12/12 19:58:54;;;;;;;30.98;15.85;;;-3.60;99.90;;;;;;5050081;28;20029;-67
2022/12/12 20:01:24;;;;;;;36.42;17.08;;;-3.60;99.90;;;;;;5068703;28;20121;-69
2022/12/12 20:03:59;;;;;;;28.88;14.05;;;-3.60;99.90;;;;;;5069761;28;20142;-68
2022/12/12 20:06:26;;;;;;;39.55;18.17;;;-3.70;99.90;;;;;;5068967;28;20059;-70
2022/12/12 20:08:52;;;;;;;37.78;17.55;;;-3.70;99.90;;;;;;5062000;28;20040;-69
2022/12/12 20:11:22;;;;;;;34.60;17.33;;;-3.70;99.90;;;;;;5055643;28;20035;-71
2022/12/12 20:13:53;;;;;;;41.55;16.52;;;-3.70;99.90;;;;;;5070015;28;20039;-72
2022/12/12 20:16:20;;;;;;;32.15;15.98;;;-3.70;99.90;;;;;;5067254;28;20473;-71
2022/12/12 20:18:48;;;;;;;36.47;16.98;;;-3.80;99.90;;;;;;5069789;28;20598;-69
2022/12/12 20:21:19;;;;;;;37.47;17.55;;;-3.80;99.90;;;;;;5068736;28;20101;-70
2022/12/12 20:23:45;;;;;;;38.58;18.45;;;-3.80;99.90;;;;;;5070184;28;20019;-70
2022/12/12 20:26:15;;;;;;;41.70;21.52;;;-3.80;99.90;;;;;;5070293;28;20085;-68
2022/12/12 20:28:41;;;;;;;78.45;29.45;;;-3.80;99.90;;;;;;5053717;28;20044;-69
2022/12/12 20:31:09;;;;;;;52.03;23.45;;;-3.80;99.90;;;;;;5058242;28;20417;-71
2022/12/12 20:33:36;;;;;;;48.28;21.88;;;-3.80;99.90;;;;;;5072939;28;20693;-70
2022/12/12 20:36:09;;;;;;;35.85;17.27;;;-3.80;99.90;;;;;;5072005;28;20131;-71
2022/12/12 20:38:36;;;;;;;30.75;15.27;;;-3.90;99.90;;;;;;5069823;28;20551;-71
2022/12/12 20:41:08;;;;;;;28.98;15.75;;;-4.00;99.90;;;;;;5071944;28;20057;-71
2022/12/12 20:43:34;;;;;;;34.22;16.88;;;-4.00;99.90;;;;;;5053233;28;20478;-68
2022/12/12 20:45:59;;;;;;;31.58;16.02;;;-4.00;99.90;;;;;;5053011;28;20028;-68
2022/12/12 20:48:25;;;;;;;44.65;19.42;;;-4.10;99.90;;;;;;5053001;28;20045;-68
2022/12/12 20:50:50;;;;;;;46.63;19.45;;;-4.10;99.90;;;;;;5053189;28;20033;-65
